createdAt,value
2023-04-05T00:00:32.605Z,3.90
2023-04-05T00:03:00.302Z,4.80
2023-04-05T00:05:31.590Z,4.33
2023-04-05T00:08:02.139Z,4.03
2023-04-05T00:10:30.449Z,4.77
2023-04-05T00:12:58.612Z,4.37
2023-04-05T00:15:27.150Z,4.27
2023-04-05T00:17:55.066Z,4.07
2023-04-05T00:20:22.149Z,3.97
2023-04-05T00:22:50.861Z,4.13
2023-04-05T00:25:18.715Z,4.20
2023-04-05T00:27:46.158Z,4.20
2023-04-05T00:30:13.594Z,3.93
2023-04-05T00:32:40.750Z,3.97
2023-04-05T00:35:08.285Z,4.60
2023-04-05T00:37:35.592Z,3.73
2023-04-05T00:40:02.762Z,4.13
2023-04-05T00:42:29.966Z,3.73
2023-04-05T00:44:57.002Z,4.17
2023-04-05T00:47:24.210Z,3.90
2023-04-05T00:49:51.313Z,3.90
2023-04-05T00:52:19.655Z,4.20
2023-04-05T00:54:46.752Z,4.50
2023-04-05T00:57:14.871Z,4.20
2023-04-05T00:59:42.417Z,4.10
2023-04-05T01:02:25.347Z,4.43
2023-04-05T01:05:06.896Z,4.47
2023-04-05T01:07:46.749Z,4.17
2023-04-05T01:10:17.494Z,4.03
2023-04-05T01:12:45.060Z,4.47
2023-04-05T01:15:12.952Z,4.17
2023-04-05T01:17:42.091Z,4.63
2023-04-05T01:20:11.907Z,3.83
2023-04-05T01:23:18.232Z,4.30
2023-04-05T01:26:26.976Z,4.07
2023-04-05T01:29:36.154Z,4.07
2023-04-05T01:32:35.469Z,3.70
2023-04-05T01:35:38.795Z,4.40
2023-04-05T01:38:10.542Z,4.67
2023-04-05T01:40:42.011Z,4.67
2023-04-05T01:43:19.224Z,4.87
2023-04-05T01:45:47.196Z,4.70
2023-04-05T01:48:15.197Z,4.27
2023-04-05T01:50:42.521Z,3.90
2023-04-05T01:53:10.299Z,4.10
2023-04-05T01:55:37.454Z,3.97
2023-04-05T01:58:04.572Z,4.90
2023-04-05T02:00:32.733Z,4.10
2023-04-05T02:02:59.921Z,3.87
2023-04-05T02:05:27.275Z,4.40
2023-04-05T02:07:54.366Z,5.00
2023-04-05T02:10:23.214Z,4.23
2023-04-05T02:12:50.593Z,4.03
2023-04-05T02:15:17.837Z,4.80
2023-04-05T02:17:45.902Z,4.07
2023-04-05T02:20:14.809Z,4.13
2023-04-05T02:22:45.608Z,4.27
2023-04-05T02:25:13.552Z,4.20
2023-04-05T02:27:41.297Z,4.30
2023-04-05T02:30:09.567Z,4.20
2023-04-05T02:32:36.716Z,4.20
2023-04-05T02:35:04.149Z,4.20
2023-04-05T02:37:31.561Z,4.40
2023-04-05T02:39:58.936Z,4.00
2023-04-05T02:42:26.142Z,4.37
2023-04-05T02:44:53.633Z,4.10
2023-04-05T02:47:22.575Z,4.03
2023-04-05T02:49:57.593Z,4.57
2023-04-05T02:52:27.136Z,4.47
2023-04-05T02:54:54.225Z,3.83
2023-04-05T02:57:26.711Z,4.03
2023-04-05T03:00:01.525Z,4.50
2023-04-05T03:02:31.767Z,3.70
2023-04-05T03:05:02.498Z,4.40
2023-04-05T03:07:33.352Z,3.83
2023-04-05T03:10:05.183Z,4.20
2023-04-05T03:12:33.195Z,4.07
2023-04-05T03:15:00.659Z,4.50
2023-04-05T03:17:35.336Z,4.20
2023-04-05T03:20:07.503Z,4.13
2023-04-05T03:22:34.950Z,4.50
2023-04-05T03:25:02.793Z,4.23
2023-04-05T03:27:32.111Z,4.43
2023-04-05T03:30:07.638Z,4.17
2023-04-05T03:32:39.408Z,4.20
2023-04-05T03:35:16.903Z,4.50
2023-04-05T03:37:46.689Z,3.93
2023-04-05T03:40:14.629Z,4.33
2023-04-05T03:42:41.751Z,4.00
2023-04-05T03:45:09.566Z,4.10
2023-04-05T03:47:37.548Z,3.80
2023-04-05T03:50:08.072Z,4.60
2023-04-05T03:52:35.238Z,4.40
2023-04-05T03:55:02.893Z,3.97
2023-04-05T03:57:33.441Z,4.53
2023-04-05T04:00:17.742Z,4.30
2023-04-05T04:02:58.817Z,4.77
2023-04-05T04:05:26.301Z,3.97
2023-04-05T04:07:54.505Z,4.30
2023-04-05T04:10:23.006Z,4.53
2023-04-05T04:12:53.644Z,4.13
2023-04-05T04:15:27.063Z,4.07
2023-04-05T04:18:10.810Z,4.53
2023-04-05T04:20:54.038Z,4.67
2023-04-05T04:23:46.277Z,4.53
2023-04-05T04:26:37.608Z,5.27
2023-04-05T04:29:26.637Z,4.40
2023-04-05T04:32:16.883Z,3.97
2023-04-05T04:34:59.603Z,4.40
2023-04-05T04:38:03.132Z,4.53
2023-04-05T04:41:02.663Z,5.17
2023-04-05T04:43:46.352Z,4.43
2023-04-05T04:46:19.312Z,4.33
2023-04-05T04:49:13.469Z,4.87
2023-04-05T04:51:46.269Z,4.80
2023-04-05T04:54:13.420Z,4.37
2023-04-05T04:56:41.818Z,5.00
2023-04-05T04:59:09.217Z,4.37
2023-04-05T05:01:38.126Z,4.57
2023-04-05T05:04:05.606Z,4.63
2023-04-05T05:06:36.277Z,4.73
2023-04-05T05:09:03.729Z,3.83
2023-04-05T05:11:34.403Z,4.23
2023-04-05T05:14:02.086Z,4.23
2023-04-05T05:16:29.275Z,4.70
2023-04-05T05:18:56.409Z,4.60
2023-04-05T05:21:26.895Z,4.63
2023-04-05T05:23:59.973Z,4.50
2023-04-05T05:26:27.349Z,4.40
2023-04-05T05:28:54.430Z,4.40
2023-04-05T05:31:22.792Z,4.50
2023-04-05T05:33:50.752Z,4.50
2023-04-05T05:36:19.994Z,4.40
2023-04-05T05:38:47.749Z,4.40
2023-04-05T05:41:14.882Z,4.43
2023-04-05T05:43:41.956Z,3.93
2023-04-05T05:46:09.382Z,4.10
2023-04-05T05:48:37.033Z,5.00
2023-04-05T05:51:09.788Z,4.93
2023-04-05T05:53:38.289Z,5.50
2023-04-05T05:56:06.153Z,5.07
2023-04-05T05:58:33.338Z,5.33
2023-04-05T06:01:00.427Z,5.50
2023-04-05T06:03:29.834Z,5.40
2023-04-05T06:05:58.621Z,5.70
2023-04-05T06:08:27.900Z,5.37
2023-04-05T06:10:55.301Z,5.77
2023-04-05T06:13:22.548Z,4.90
2023-04-05T06:15:49.703Z,4.87
2023-04-05T06:18:17.356Z,5.63
2023-04-05T06:20:44.764Z,5.37
2023-04-05T06:23:12.401Z,5.53
2023-04-05T06:25:39.926Z,6.63
2023-04-05T06:28:07.609Z,6.20
2023-04-05T06:30:34.756Z,5.97
2023-04-05T06:33:02.329Z,6.20
2023-04-05T06:35:29.625Z,5.43
2023-04-05T06:37:56.743Z,5.80
2023-04-05T06:40:23.864Z,5.73
2023-04-05T06:42:50.948Z,5.53
2023-04-05T06:45:23.806Z,5.87
2023-04-05T06:47:51.146Z,5.13
2023-04-05T06:50:18.208Z,5.20
2023-04-05T06:52:45.294Z,5.93
2023-04-05T06:55:12.610Z,5.20
2023-04-05T06:57:39.882Z,5.40
2023-04-05T07:00:12.054Z,4.67
2023-04-05T07:02:39.951Z,4.43
2023-04-05T07:05:07.464Z,4.50
2023-04-05T07:07:41.494Z,4.00
2023-04-05T07:10:09.330Z,4.37
2023-04-05T07:12:36.847Z,4.70
2023-04-05T07:15:04.765Z,4.00
2023-04-05T07:17:32.105Z,5.27
2023-04-05T07:19:59.218Z,4.03
2023-04-05T07:22:26.498Z,5.10
2023-04-05T07:24:55.738Z,4.07
2023-04-05T07:27:23.156Z,3.93
2023-04-05T07:29:50.368Z,4.30
2023-04-05T07:32:17.679Z,4.53
2023-04-05T07:34:45.135Z,4.17
2023-04-05T07:37:12.830Z,4.30
2023-04-05T07:39:40.434Z,4.37
2023-04-05T07:42:07.613Z,4.30
2023-04-05T07:44:34.790Z,4.43
2023-04-05T07:47:02.055Z,4.00
2023-04-05T07:49:30.497Z,3.87
2023-04-05T07:51:58.003Z,3.33
2023-04-05T07:54:25.176Z,3.77
2023-04-05T07:56:53.004Z,4.10
2023-04-05T07:59:20.296Z,3.87
2023-04-05T08:01:47.820Z,3.80
2023-04-05T08:04:14.911Z,3.80
2023-04-05T08:06:42.056Z,3.73
2023-04-05T08:09:09.232Z,3.30
2023-04-05T08:11:36.424Z,4.10
2023-04-05T08:14:03.482Z,3.67
2023-04-05T08:16:30.956Z,3.60
2023-04-05T08:18:58.074Z,3.90
2023-04-05T08:21:25.230Z,3.80
2023-04-05T08:23:52.282Z,3.40
2023-04-05T08:26:19.481Z,3.70
2023-04-05T08:28:46.624Z,3.80
2023-04-05T08:31:13.972Z,4.10
2023-04-05T08:33:41.230Z,3.63
2023-04-05T08:36:09.454Z,3.50
2023-04-05T08:38:37.016Z,3.67
2023-04-05T08:41:19.704Z,4.30
2023-04-05T08:44:03.989Z,4.03
2023-04-05T08:46:33.079Z,4.80
2023-04-05T08:49:04.435Z,4.00
2023-04-05T08:51:31.872Z,3.87
2023-04-05T08:54:00.457Z,3.57
2023-04-05T08:56:33.721Z,4.10
2023-04-05T08:59:06.080Z,3.87
2023-04-05T09:01:38.186Z,3.87
2023-04-05T09:04:27.428Z,4.07
2023-04-05T09:06:57.693Z,4.03
2023-04-05T09:09:25.608Z,3.67
2023-04-05T09:11:52.917Z,3.90
2023-04-05T09:14:21.508Z,3.87
2023-04-05T09:16:48.708Z,4.17
2023-04-05T09:19:15.828Z,3.97
2023-04-05T09:22:18.666Z,4.30
2023-04-05T09:24:47.283Z,3.93
2023-04-05T09:27:19.715Z,4.33
2023-04-05T09:29:55.329Z,3.93
2023-04-05T09:32:27.799Z,3.80
2023-04-05T09:34:55.005Z,3.87
2023-04-05T09:37:24.988Z,4.13
2023-04-05T09:40:03.729Z,4.10
2023-04-05T09:42:42.994Z,3.70
2023-04-05T09:45:10.708Z,4.23
2023-04-05T09:47:56.488Z,4.30
2023-04-05T09:50:23.955Z,4.00
2023-04-05T09:53:05.149Z,4.00
2023-04-05T09:55:33.356Z,4.03
2023-04-05T09:58:01.468Z,3.77
2023-04-05T10:00:31.476Z,4.23
2023-04-05T10:02:58.751Z,4.43
2023-04-05T10:05:28.419Z,3.53
2023-04-05T10:07:56.402Z,3.67
2023-04-05T10:10:24.275Z,3.67
2023-04-05T10:12:51.464Z,4.00
2023-04-05T10:15:19.402Z,3.40
2023-04-05T10:17:55.623Z,3.57
2023-04-05T10:20:24.619Z,3.87
2023-04-05T10:23:32.106Z,3.77
2023-04-05T10:26:10.370Z,3.73
2023-04-05T10:28:42.414Z,3.90
2023-04-05T10:31:38.183Z,3.70
2023-04-05T10:34:20.451Z,4.03
2023-04-05T10:37:08.918Z,4.43
2023-04-05T10:39:42.615Z,3.90
2023-04-05T10:42:28.298Z,3.87
2023-04-05T10:45:04.989Z,3.93
2023-04-05T10:47:37.098Z,4.27
2023-04-05T10:50:08.725Z,4.07
2023-04-05T10:52:37.282Z,4.40
2023-04-05T10:55:05.419Z,4.10
2023-04-05T10:57:33.846Z,4.20
2023-04-05T11:00:01.674Z,4.13
2023-04-05T11:02:30.075Z,4.70
2023-04-05T11:04:57.573Z,4.63
2023-04-05T11:07:24.880Z,4.97
2023-04-05T11:10:00.333Z,4.30
2023-04-05T11:13:06.353Z,5.10
2023-04-05T11:15:34.644Z,4.90
2023-04-05T11:18:12.796Z,4.83
2023-04-05T11:20:56.105Z,4.63
2023-04-05T11:23:25.111Z,4.70
2023-04-05T11:26:04.672Z,4.60
2023-04-05T11:28:39.678Z,4.80
2023-04-05T11:31:26.832Z,3.93
2023-04-05T11:33:57.305Z,4.47
2023-04-05T11:36:58.634Z,4.47
2023-04-05T11:39:26.108Z,4.27
2023-04-05T11:42:07.269Z,3.77
2023-04-05T11:44:53.372Z,3.90
2023-04-05T11:47:23.705Z,4.33
2023-04-05T11:49:52.023Z,4.40
2023-04-05T11:52:21.356Z,4.50
2023-04-05T11:54:49.803Z,4.00
2023-04-05T11:57:22.471Z,4.13
2023-04-05T11:59:53.483Z,4.23
2023-04-05T12:02:21.467Z,3.57
2023-04-05T12:04:58.575Z,4.33
2023-04-05T12:07:32.595Z,3.90
2023-04-05T12:10:21.272Z,3.87
2023-04-05T12:12:49.215Z,4.50
2023-04-05T12:15:19.069Z,4.03
2023-04-05T12:17:51.804Z,3.87
2023-04-05T12:20:22.076Z,4.47
2023-04-05T12:22:51.956Z,4.20
2023-04-05T12:25:20.642Z,4.70
2023-04-05T12:27:48.365Z,3.80
2023-04-05T12:30:20.597Z,4.60
2023-04-05T12:32:55.517Z,4.20
2023-04-05T12:35:33.111Z,4.20
2023-04-05T12:38:02.284Z,4.80
2023-04-05T12:40:33.056Z,4.47
2023-04-05T12:43:07.914Z,4.40
2023-04-05T12:45:43.542Z,3.90
2023-04-05T12:48:14.234Z,4.20
2023-04-05T12:50:49.041Z,3.70
2023-04-05T12:53:21.436Z,3.90
2023-04-05T12:55:53.354Z,4.23
2023-04-05T12:58:22.720Z,4.50
2023-04-05T13:00:49.829Z,4.37
2023-04-05T13:03:20.746Z,4.77
2023-04-05T13:05:49.432Z,4.40
2023-04-05T13:08:19.728Z,4.60
2023-04-05T13:10:48.489Z,4.47
2023-04-05T13:13:16.887Z,4.23
2023-04-05T13:15:45.904Z,4.17
2023-04-05T13:18:15.959Z,3.80
2023-04-05T13:20:43.015Z,4.60
2023-04-05T13:23:12.122Z,4.40
2023-04-05T13:25:45.455Z,4.53
2023-04-05T13:28:12.886Z,3.90
2023-04-05T13:30:39.943Z,4.87
2023-04-05T13:33:07.223Z,4.43
2023-04-05T13:35:34.356Z,4.43
2023-04-05T13:38:03.950Z,4.10
2023-04-05T13:40:32.425Z,4.70
2023-04-05T13:42:59.584Z,4.17
2023-04-05T13:45:27.743Z,4.50
2023-04-05T13:47:55.691Z,4.47
2023-04-05T13:50:22.878Z,4.37
2023-04-05T13:52:50.137Z,4.40
2023-04-05T13:55:17.764Z,4.47
2023-04-05T13:57:44.983Z,4.10
2023-04-05T14:00:13.070Z,4.23
2023-04-05T14:02:41.175Z,5.10
2023-04-05T14:05:08.953Z,4.77
2023-04-05T14:07:36.725Z,4.50
2023-04-05T14:10:06.195Z,4.30
2023-04-05T14:12:34.304Z,4.30
2023-04-05T14:15:01.483Z,4.77
2023-04-05T14:17:28.905Z,4.80
2023-04-05T14:19:56.178Z,4.80
2023-04-05T14:22:23.700Z,4.40
2023-04-05T14:24:51.249Z,4.33
2023-04-05T14:27:18.586Z,4.50
2023-04-05T14:29:46.030Z,4.30
2023-04-05T14:32:13.513Z,4.53
2023-04-05T14:34:40.936Z,4.30
2023-04-05T14:37:08.198Z,4.30
2023-04-05T14:39:35.670Z,4.60
2023-04-05T14:42:03.325Z,3.50
2023-04-05T14:44:30.673Z,3.93
2023-04-05T14:46:57.883Z,3.83
2023-04-05T14:49:25.597Z,4.33
2023-04-05T14:51:52.906Z,4.10
2023-04-05T14:54:20.196Z,3.50
2023-04-05T14:56:47.296Z,4.07
2023-04-05T14:59:14.497Z,4.43
2023-04-05T15:01:45.869Z,3.50
2023-04-05T15:04:13.498Z,4.10
2023-04-05T15:06:40.959Z,3.80
2023-04-05T15:09:08.526Z,3.63
2023-04-05T15:11:39.338Z,3.60
2023-04-05T15:14:08.610Z,3.57
2023-04-05T15:16:39.063Z,3.77
2023-04-05T15:19:06.686Z,3.63
2023-04-05T15:21:34.249Z,3.40
2023-04-05T15:24:02.457Z,4.03
2023-04-05T15:26:29.823Z,3.67
2023-04-05T15:28:57.085Z,3.80
2023-04-05T15:31:24.538Z,3.90
2023-04-05T15:33:51.993Z,4.47
2023-04-05T15:36:19.247Z,4.13
2023-04-05T15:38:46.674Z,4.27
2023-04-05T15:41:14.488Z,3.90
2023-04-05T15:43:41.893Z,3.50
2023-04-05T15:46:09.351Z,3.67
2023-04-05T15:48:36.885Z,3.50
2023-04-05T15:51:04.668Z,4.27
2023-04-05T15:53:32.116Z,4.80
2023-04-05T15:55:59.767Z,4.40
2023-04-05T15:58:27.141Z,4.77
2023-04-05T16:00:54.872Z,4.20
2023-04-05T16:03:22.409Z,4.10
2023-04-05T16:05:49.856Z,4.30
2023-04-05T16:08:17.321Z,4.13
2023-04-05T16:10:45.141Z,3.90
2023-04-05T16:13:12.667Z,4.10
2023-04-05T16:15:40.052Z,4.10
2023-04-05T16:18:09.421Z,4.47
2023-04-05T16:20:37.415Z,4.40
2023-04-05T16:23:04.780Z,4.50
2023-04-05T16:25:32.417Z,4.13
2023-04-05T16:27:59.824Z,4.70
2023-04-05T16:30:27.150Z,5.00
2023-04-05T16:32:54.422Z,4.40
2023-04-05T16:35:21.753Z,4.80
2023-04-05T16:37:49.073Z,4.50
2023-04-05T16:40:16.868Z,4.30
2023-04-05T16:42:44.642Z,4.47
2023-04-05T16:45:12.470Z,4.30
2023-04-05T16:47:39.766Z,4.63
2023-04-05T16:50:08.066Z,4.17
2023-04-05T16:52:35.120Z,3.93
2023-04-05T16:55:02.432Z,4.60
2023-04-05T16:57:29.483Z,4.50
2023-04-05T16:59:56.538Z,3.83
2023-04-05T17:02:23.654Z,4.43
2023-04-05T17:04:50.854Z,4.47
2023-04-05T17:07:18.268Z,4.33
2023-04-05T17:09:45.518Z,4.17
2023-04-05T17:12:12.626Z,4.33
2023-04-05T17:14:39.895Z,3.90
2023-04-05T17:17:06.990Z,4.63
2023-04-05T17:19:34.084Z,4.43
2023-04-05T17:22:01.413Z,4.40
2023-04-05T17:24:37.080Z,4.03
2023-04-05T17:27:05.681Z,4.47
2023-04-05T17:29:32.773Z,3.87
2023-04-05T17:31:59.892Z,4.10
2023-04-05T17:34:27.491Z,4.63
2023-04-05T17:36:54.796Z,4.70
2023-04-05T17:39:21.839Z,4.87
2023-04-05T17:41:50.452Z,4.70
2023-04-05T17:44:17.550Z,4.23
2023-04-05T17:46:51.056Z,4.67
2023-04-05T17:49:21.295Z,4.57
2023-04-05T17:51:48.643Z,4.13
2023-04-05T17:54:16.298Z,4.83
2023-04-05T17:56:43.332Z,4.10
2023-04-05T17:59:10.992Z,5.00
2023-04-05T18:01:38.155Z,4.40
2023-04-05T18:04:06.044Z,4.57
2023-04-05T18:06:33.398Z,4.97
2023-04-05T18:09:00.754Z,4.97
2023-04-05T18:11:27.961Z,4.60
2023-04-05T18:13:55.515Z,4.07
2023-04-05T18:16:22.896Z,4.37
2023-04-05T18:18:50.065Z,4.90
2023-04-05T18:21:17.131Z,5.07
2023-04-05T18:23:44.279Z,4.67
2023-04-05T18:26:11.558Z,4.97
2023-04-05T18:28:38.683Z,5.03
2023-04-05T18:31:09.232Z,5.03
2023-04-05T18:33:37.912Z,4.93
2023-04-05T18:36:05.218Z,5.20
2023-04-05T18:38:32.764Z,5.07
2023-04-05T18:41:04.086Z,4.73
2023-04-05T18:43:31.483Z,4.57
2023-04-05T18:45:58.624Z,4.83
2023-04-05T18:48:25.877Z,4.73
2023-04-05T18:50:56.184Z,4.43
2023-04-05T18:53:24.550Z,4.97
2023-04-05T18:55:55.618Z,4.87
2023-04-05T18:58:22.730Z,4.30
2023-04-05T19:00:49.812Z,5.10
2023-04-05T19:03:17.214Z,5.37
2023-04-05T19:05:53.861Z,4.73
2023-04-05T19:08:20.967Z,5.07
2023-04-05T19:10:48.149Z,5.17
2023-04-05T19:13:15.634Z,5.27
2023-04-05T19:15:42.843Z,4.90
2023-04-05T19:18:10.025Z,5.00
2023-04-05T19:20:37.214Z,4.80
2023-04-05T19:23:04.329Z,5.30
2023-04-05T19:25:31.557Z,4.87
2023-04-05T19:27:58.827Z,4.73
2023-04-05T19:30:25.952Z,5.33
2023-04-05T19:32:54.965Z,4.50
2023-04-05T19:35:22.630Z,4.80
2023-04-05T19:37:49.785Z,5.60
2023-04-05T19:40:16.921Z,5.67
2023-04-05T19:42:47.784Z,5.70
2023-04-05T19:45:23.745Z,5.43
2023-04-05T19:47:50.969Z,5.10
2023-04-05T19:50:56.288Z,5.57
2023-04-05T19:53:54.137Z,5.67
2023-04-05T19:56:28.660Z,5.23
2023-04-05T19:59:31.684Z,6.07
2023-04-05T20:02:00.127Z,6.00
2023-04-05T20:04:27.811Z,5.40
2023-04-05T20:06:56.061Z,5.10
2023-04-05T20:09:28.950Z,5.20
2023-04-05T20:12:01.636Z,5.30
2023-04-05T20:14:50.583Z,5.40
2023-04-05T20:17:18.981Z,5.07
2023-04-05T20:19:57.759Z,5.80
2023-04-05T20:22:27.060Z,6.20
2023-04-05T20:24:54.179Z,5.20
2023-04-05T20:27:21.538Z,5.77
2023-04-05T20:29:48.615Z,5.80
2023-04-05T20:32:17.750Z,5.73
2023-04-05T20:34:46.166Z,5.40
2023-04-05T20:37:13.669Z,5.97
2023-04-05T20:39:40.779Z,5.47
2023-04-05T20:42:09.905Z,5.87
2023-04-05T20:44:37.334Z,6.10
2023-04-05T20:47:04.536Z,6.37
2023-04-05T20:49:31.643Z,5.93
2023-04-05T20:51:58.959Z,5.73
2023-04-05T20:54:26.196Z,5.90
2023-04-05T20:56:53.379Z,6.60
2023-04-05T20:59:20.572Z,7.00
2023-04-05T21:01:49.385Z,6.40
2023-04-05T21:04:16.836Z,6.83
2023-04-05T21:06:44.005Z,6.03
2023-04-05T21:09:11.328Z,6.63
2023-04-05T21:11:38.687Z,6.30
2023-04-05T21:14:06.050Z,6.47
2023-04-05T21:16:33.211Z,6.17
2023-04-05T21:19:00.476Z,6.10
2023-04-05T21:21:27.810Z,6.40
2023-04-05T21:23:54.890Z,6.13
2023-04-05T21:26:22.042Z,6.87
2023-04-05T21:28:49.158Z,6.30
2023-04-05T21:31:16.621Z,6.90
2023-04-05T21:33:43.746Z,6.20
2023-04-05T21:36:10.909Z,7.17
2023-04-05T21:38:37.968Z,6.53
2023-04-05T21:41:05.258Z,6.73
2023-04-05T21:43:32.382Z,6.53
2023-04-05T21:45:59.516Z,7.03
2023-04-05T21:48:28.183Z,7.37
2023-04-05T21:50:56.046Z,6.97
2023-04-05T21:53:25.456Z,6.53
2023-04-05T21:55:52.960Z,6.60
2023-04-05T21:58:20.153Z,6.90
2023-04-05T22:00:47.334Z,6.67
2023-04-05T22:03:14.511Z,6.87
2023-04-05T22:05:41.915Z,6.93
2023-04-05T22:08:11.153Z,6.30
2023-04-05T22:10:38.975Z,6.47
2023-04-05T22:13:06.165Z,7.87
2023-04-05T22:15:33.654Z,6.50
2023-04-05T22:18:01.117Z,6.90
2023-04-05T22:20:28.340Z,6.97
2023-04-05T22:22:55.429Z,5.60
2023-04-05T22:25:22.582Z,6.90
2023-04-05T22:27:49.710Z,6.50
2023-04-05T22:30:16.937Z,6.23
2023-04-05T22:32:44.021Z,7.17
2023-04-05T22:35:11.382Z,6.97
2023-04-05T22:37:40.661Z,6.80
2023-04-05T22:40:08.552Z,6.27
2023-04-05T22:42:35.765Z,6.87
2023-04-05T22:45:03.561Z,6.97
2023-04-05T22:47:30.683Z,6.57
2023-04-05T22:49:57.824Z,6.93
2023-04-05T22:52:24.918Z,6.63
2023-04-05T22:54:52.178Z,6.87
2023-04-05T22:57:19.231Z,7.53
2023-04-05T22:59:46.493Z,7.03
2023-04-05T23:02:13.625Z,7.70
2023-04-05T23:04:41.139Z,7.37
2023-04-05T23:07:08.192Z,7.13
2023-04-05T23:09:35.777Z,7.27
2023-04-05T23:12:02.882Z,7.80
2023-04-05T23:14:29.956Z,7.03
2023-04-05T23:16:57.118Z,6.87
2023-04-05T23:19:24.261Z,7.70
2023-04-05T23:21:51.556Z,7.57
2023-04-05T23:24:18.694Z,7.60
2023-04-05T23:26:45.734Z,7.47
2023-04-05T23:29:12.821Z,6.60
2023-04-05T23:31:39.886Z,6.83
2023-04-05T23:34:07.231Z,7.37
2023-04-05T23:36:34.306Z,7.00
2023-04-05T23:39:01.679Z,6.47
2023-04-05T23:41:28.997Z,7.47
2023-04-05T23:43:56.341Z,7.10
2023-04-05T23:46:23.486Z,7.73
2023-04-05T23:48:50.743Z,8.20
2023-04-05T23:51:17.807Z,7.90
2023-04-05T23:53:44.915Z,7.43
2023-04-05T23:56:12.069Z,7.47
2023-04-05T23:58:42.270Z,7.30
